Time;durP1;ratioP1;P1;durP2;ratioP2;P2;SDS_P1;SDS_P2;PMS_P1;PMS_P2;Temp;Humidity;BMP_temperature;BMP_pressure;BME280_temperature;BME280_humidity;BME280_pressure;Samples;Min_cycle;Max_cycle;Signal;HPM_P1;HPM_P2
2023/01/13 00:00:41;;;;;;;2.20;0.80;;;11.50;98.60;;;;;;5072198;28;20387;-73
2023/01/13 00:03:07;;;;;;;1.10;0.80;;;11.50;98.50;;;;;;5072181;28;20379;-72
2023/01/13 00:05:33;;;;;;;1.20;0.93;;;11.50;97.90;;;;;;5072227;28;20413;-72
2023/01/13 00:07:58;;;;;;;1.38;0.90;;;11.50;96.60;;;;;;5076880;28;20871;-72
2023/01/13 00:10:24;;;;;;;2.30;1.00;;;11.50;96.30;;;;;;5073843;28;20387;-72
2023/01/13 00:12:50;;;;;;;2.30;0.90;;;11.60;93.20;;;;;;5074444;28;20790;-72
2023/01/13 00:15:16;;;;;;;2.13;0.80;;;11.50;93.30;;;;;;5073773;28;20380;-72
2023/01/13 00:17:41;;;;;;;2.10;0.90;;;11.60;88.70;;;;;;5073291;28;20454;-73
2023/01/13 00:20:08;;;;;;;3.88;0.90;;;11.40;88.80;;;;;;5072075;28;20382;-72
2023/01/13 00:22:34;;;;;;;2.75;0.80;;;11.40;86.50;;;;;;5072647;28;20790;-72
2023/01/13 00:25:00;;;;;;;1.90;1.00;;;11.30;88.00;;;;;;5072176;28;20482;-71
2023/01/13 00:27:26;;;;;;;2.25;1.00;;;11.20;89.80;;;;;;5071615;28;20805;-72
2023/01/13 00:29:52;;;;;;;3.53;1.30;;;11.20;89.30;;;;;;5074682;28;20870;-73
2023/01/13 00:32:18;;;;;;;2.45;0.90;;;11.20;87.90;;;;;;5073868;28;20411;-72
2023/01/13 00:34:44;;;;;;;1.67;0.90;;;11.20;87.90;;;;;;5071519;28;20437;-72
2023/01/13 00:37:11;;;;;;;1.70;1.10;;;11.20;89.40;;;;;;5053547;28;20384;-73
2023/01/13 00:39:37;;;;;;;5.00;1.20;;;11.20;87.60;;;;;;5053344;28;20387;-73
2023/01/13 00:44:47;;;;;;;2.10;1.13;;;11.20;87.70;;;;;;5076954;28;20685;-72
2023/01/13 00:47:12;;;;;;;2.53;1.10;;;11.30;87.70;;;;;;5054002;28;20736;-72
2023/01/13 00:49:38;;;;;;;1.90;1.03;;;11.20;86.60;;;;;;5071483;28;20406;-72
2023/01/13 00:52:04;;;;;;;3.40;1.30;;;11.20;87.20;;;;;;5071781;28;20399;-72
2023/01/13 00:54:29;;;;;;;6.28;1.00;;;11.20;84.40;;;;;;5072184;28;20376;-72
2023/01/13 00:56:55;;;;;;;4.47;1.20;;;11.20;82.10;;;;;;5071647;28;20651;-71
2023/01/13 00:59:20;;;;;;;2.92;1.30;;;11.20;81.70;;;;;;5071061;28;20376;-72
2023/01/13 01:01:46;;;;;;;4.75;1.17;;;11.20;78.10;;;;;;5070871;28;20475;-72
2023/01/13 01:04:11;;;;;;;4.90;1.30;;;11.20;80.30;;;;;;5070751;28;20376;-72
2023/01/13 01:06:37;;;;;;;7.27;1.63;;;11.20;77.60;;;;;;5070823;28;20383;-73
2023/01/13 01:09:04;;;;;;;5.63;1.53;;;11.20;76.00;;;;;;5070854;28;20392;-72
2023/01/13 01:11:31;;;;;;;4.10;1.23;;;11.20;74.50;;;;;;5070565;28;20898;-73
2023/01/13 01:13:58;;;;;;;4.20;1.40;;;11.10;76.90;;;;;;5070974;28;20368;-73
2023/01/13 01:16:26;;;;;;;7.97;1.90;;;11.10;76.90;;;;;;5070652;28;20458;-73
2023/01/13 01:18:53;;;;;;;2.38;1.48;;;11.10;75.80;;;;;;5070645;28;20868;-73
2023/01/13 01:21:20;;;;;;;7.15;1.60;;;11.10;74.80;;;;;;5070358;28;20386;-73
2023/01/13 01:23:46;;;;;;;7.90;1.90;;;11.00;74.80;;;;;;5070454;28;20452;-72
2023/01/13 01:26:18;;;;;;;5.83;1.50;;;11.10;73.40;;;;;;5070580;28;20384;-73
2023/01/13 01:28:44;;;;;;;5.65;1.45;;;11.10;72.50;;;;;;5070440;28;21005;-72
2023/01/13 01:31:16;;;;;;;6.90;1.60;;;11.10;73.30;;;;;;5070175;28;20470;-73
2023/01/13 01:33:42;;;;;;;2.40;1.33;;;11.10;72.60;;;;;;5070418;28;20898;-72
2023/01/13 01:36:10;;;;;;;4.30;1.30;;;11.10;71.80;;;;;;5070138;28;20418;-72
2023/01/13 01:38:36;;;;;;;5.53;1.50;;;11.10;70.80;;;;;;5070332;28;20446;-72
2023/01/13 01:41:01;;;;;;;11.48;1.75;;;11.10;68.00;;;;;;5070122;28;20407;-73
2023/01/13 01:44:02;;;;;;;6.03;1.57;;;11.00;67.50;;;;;;5052193;28;20505;-71
2023/01/13 01:46:42;;;;;;;7.03;1.80;;;11.00;66.20;;;;;;5070358;28;20388;-73
2023/01/13 01:49:19;;;;;;;6.03;1.80;;;10.90;66.70;;;;;;5070298;28;20456;-72
2023/01/13 01:52:03;;;;;;;5.82;1.63;;;10.90;66.20;;;;;;5070111;28;20376;-72
2023/01/13 01:54:53;;;;;;;9.38;1.90;;;10.90;61.30;;;;;;5070463;28;20390;-73
2023/01/13 01:57:25;;;;;;;7.78;2.00;;;10.90;60.60;;;;;;5072777;28;20418;-72
2023/01/13 01:59:51;;;;;;;10.73;2.17;;;10.90;61.70;;;;;;5074389;28;20387;-71
2023/01/13 02:02:17;;;;;;;6.63;1.85;;;10.80;61.30;;;;;;5074237;28;20386;-73
2023/01/13 02:04:50;;;;;;;11.32;1.75;;;10.70;63.30;;;;;;5074619;28;20384;-72
2023/01/13 02:07:23;;;;;;;8.03;2.20;;;10.60;62.90;;;;;;5074734;28;20383;-72
2023/01/13 02:09:50;;;;;;;11.63;2.35;;;10.50;63.30;;;;;;5074409;28;20819;-72
2023/01/13 02:12:28;;;;;;;7.57;1.80;;;10.50;59.80;;;;;;5073763;28;20403;-72
2023/01/13 02:14:55;;;;;;;12.45;2.50;;;10.40;58.30;;;;;;5074240;28;20469;-73
2023/01/13 02:17:39;;;;;;;5.82;1.70;;;10.40;57.30;;;;;;5074027;28;21039;-72
2023/01/13 02:20:05;;;;;;;7.90;1.80;;;10.30;52.90;;;;;;5074024;28;20379;-72
2023/01/13 02:22:48;;;;;;;4.90;1.50;;;10.20;52.20;;;;;;5073988;28;20386;-72
2023/01/13 02:25:47;;;;;;;4.10;1.50;;;10.20;48.30;;;;;;5073554;28;20892;-71
2023/01/13 02:28:34;;;;;;;5.20;1.30;;;10.20;46.60;;;;;;5073669;28;20491;-73
2023/01/13 02:34:22;;;;;;;5.75;1.67;;;10.10;46.60;;;;;;5074190;28;20499;-72
2023/01/13 02:37:10;;;;;;;6.40;1.40;;;10.10;44.30;;;;;;5073708;28;20479;-72
2023/01/13 02:39:44;;;;;;;5.85;1.30;;;9.90;46.10;;;;;;5073952;28;20857;-72
2023/01/13 02:45:30;;;;;;;6.13;1.60;;;9.70;46.50;;;;;;5073669;28;20379;-72
2023/01/13 02:47:58;;;;;;;5.78;1.25;;;9.50;47.80;;;;;;5073481;28;20912;-72
2023/01/13 02:50:31;;;;;;;6.03;1.33;;;9.40;49.30;;;;;;5055466;28;20387;-73
2023/01/13 02:53:02;;;;;;;10.23;1.70;;;9.30;50.50;;;;;;5073151;28;20396;-72
2023/01/13 02:55:41;;;;;;;9.77;1.83;;;9.20;51.20;;;;;;5073206;28;20470;-73
2023/01/13 02:58:10;;;;;;;9.90;1.88;;;9.10;50.90;;;;;;5073871;28;20876;-73
2023/01/13 03:00:37;;;;;;;5.63;1.70;;;9.10;51.30;;;;;;5074974;28;20399;-74
2023/01/13 03:03:03;;;;;;;8.80;2.03;;;9.00;52.20;;;;;;5075086;28;20537;-72
2023/01/13 03:05:32;;;;;;;12.20;1.60;;;9.00;52.70;;;;;;5073445;28;20478;-73
2023/01/13 03:08:14;;;;;;;7.35;1.80;;;9.00;53.50;;;;;;5073251;28;20871;-73
2023/01/13 03:11:03;;;;;;;9.50;2.30;;;9.00;53.00;;;;;;5073353;28;20747;-73
2023/01/13 03:14:09;;;;;;;9.73;2.17;;;8.90;54.10;;;;;;5073437;28;20399;-73
2023/01/13 03:16:41;;;;;;;10.05;1.77;;;8.90;53.90;;;;;;5033478;28;20400;-73
2023/01/13 03:19:34;;;;;;;10.27;1.95;;;8.90;54.30;;;;;;5073272;28;20380;-74
2023/01/13 03:22:23;;;;;;;13.38;1.75;;;8.90;55.80;;;;;;5072938;28;20387;-73
2023/01/13 03:25:02;;;;;;;6.65;1.48;;;8.80;56.70;;;;;;5078406;23;20516;-73
2023/01/13 03:27:41;;;;;;;9.93;1.77;;;8.70;57.90;;;;;;5103083;28;20381;-72
2023/01/13 03:30:18;;;;;;;4.85;1.80;;;8.60;59.10;;;;;;5096657;28;20374;-72
2023/01/13 03:32:58;;;;;;;7.13;1.80;;;8.60;59.50;;;;;;5096467;28;20398;-73
2023/01/13 03:35:29;;;;;;;8.23;1.45;;;8.60;59.40;;;;;;5096800;28;20423;-71
2023/01/13 03:38:17;;;;;;;8.90;1.90;;;8.70;59.30;;;;;;5095346;28;20377;-71
2023/01/13 03:40:56;;;;;;;5.80;1.80;;;8.60;59.60;;;;;;5081954;28;20469;-73
2023/01/13 03:46:24;;;;;;;7.10;2.00;;;8.50;61.10;;;;;;5094797;28;20414;-73
2023/01/13 03:48:55;;;;;;;6.50;1.85;;;8.50;60.70;;;;;;5095339;28;20382;-71
2023/01/13 03:51:23;;;;;;;8.90;1.50;;;8.50;60.60;;;;;;5095153;28;20444;-72
2023/01/13 03:53:56;;;;;;;10.05;2.28;;;8.50;61.70;;;;;;5096904;28;20403;-72
2023/01/13 03:56:37;;;;;;;9.98;2.47;;;8.50;61.80;;;;;;5095856;28;20872;-71
2023/01/13 03:59:06;;;;;;;8.10;2.33;;;8.40;63.00;;;;;;5096809;28;20374;-72
2023/01/13 04:01:50;;;;;;;8.77;2.20;;;8.30;64.80;;;;;;5096299;28;20463;-71
2023/01/13 04:04:18;;;;;;;12.68;2.40;;;8.30;64.00;;;;;;5097122;28;20757;-73
2023/01/13 04:07:05;;;;;;;18.92;3.10;;;8.40;64.00;;;;;;5096781;28;20378;-74
2023/01/13 04:10:04;;;;;;;11.10;2.30;;;8.40;63.80;;;;;;5075143;28;20382;-72
2023/01/13 04:15:26;;;;;;;11.85;2.70;;;8.30;64.80;;;;;;5096643;28;20381;-72
2023/01/13 04:17:53;;;;;;;14.05;2.47;;;8.30;65.60;;;;;;5095528;28;20378;-72
2023/01/13 04:20:19;;;;;;;10.38;2.13;;;8.30;66.10;;;;;;5094730;28;20386;-72
2023/01/13 04:22:44;;;;;;;10.75;2.47;;;8.30;66.20;;;;;;5094558;28;20461;-72
2023/01/13 04:25:10;;;;;;;13.63;2.73;;;8.40;65.90;;;;;;5095202;28;20392;-73
2023/01/13 04:27:36;;;;;;;13.15;2.70;;;8.60;64.30;;;;;;5096171;28;20382;-73
2023/01/13 04:30:02;;;;;;;13.88;2.80;;;8.70;64.50;;;;;;5095409;28;20382;-74
2023/01/13 04:32:28;;;;;;;14.57;3.30;;;8.80;62.20;;;;;;5094898;28;20402;-74
2023/01/13 04:34:54;;;;;;;10.75;2.92;;;8.80;61.80;;;;;;5094861;28;20388;-73
2023/01/13 04:37:19;;;;;;;8.07;2.40;;;8.90;60.40;;;;;;5092759;28;20413;-72
2023/01/13 04:39:45;;;;;;;16.27;3.20;;;8.90;59.80;;;;;;5091715;28;20385;-71
2023/01/13 04:42:11;;;;;;;14.35;2.35;;;9.00;59.10;;;;;;5091465;28;20551;-71
2023/01/13 04:44:36;;;;;;;11.38;2.10;;;9.00;59.10;;;;;;5091689;28;20421;-72
2023/01/13 04:47:03;;;;;;;13.07;3.10;;;9.00;59.10;;;;;;5091661;28;20469;-73
2023/01/13 04:49:28;;;;;;;13.13;2.38;;;9.10;59.60;;;;;;5092160;28;20386;-72
2023/01/13 04:51:54;;;;;;;14.52;2.80;;;9.10;58.00;;;;;;5091516;28;20478;-70
2023/01/13 04:54:19;;;;;;;12.90;2.97;;;9.20;57.20;;;;;;5091580;28;20402;-72
2023/01/13 04:56:45;;;;;;;14.17;2.73;;;9.20;57.10;;;;;;5091643;28;20477;-72
2023/01/13 04:59:12;;;;;;;17.77;2.73;;;9.30;56.90;;;;;;5091591;28;20378;-70
2023/01/13 05:01:38;;;;;;;20.10;3.30;;;9.40;55.80;;;;;;5091809;28;20370;-71
2023/01/13 05:04:06;;;;;;;16.35;2.47;;;9.30;56.40;;;;;;5092606;28;20377;-71
2023/01/13 05:06:31;;;;;;;20.60;3.00;;;9.50;56.00;;;;;;5092562;28;20378;-73
2023/01/13 05:08:57;;;;;;;15.83;2.73;;;9.40;56.20;;;;;;5092607;28;20385;-71
2023/01/13 05:17:02;;;;;;;13.68;2.80;;;9.40;56.40;;;;;;5055240;28;20463;-73
2023/01/13 05:19:29;;;;;;;13.48;2.70;;;9.30;56.30;;;;;;5094189;28;20386;-73
2023/01/13 05:27:23;;;;;;;15.98;3.50;;;9.10;59.10;;;;;;5091843;28;20750;-72
2023/01/13 05:29:49;;;;;;;17.53;3.60;;;8.90;61.70;;;;;;5091601;28;20374;-72
2023/01/13 05:32:14;;;;;;;15.70;3.40;;;8.90;63.40;;;;;;5090813;28;20480;-72
2023/01/13 05:34:40;;;;;;;17.57;3.50;;;8.80;64.20;;;;;;5091844;28;20861;-73
2023/01/13 05:37:07;;;;;;;20.23;3.80;;;8.80;64.50;;;;;;5075365;28;20480;-73
2023/01/13 05:45:01;;;;;;;16.35;3.40;;;8.90;62.40;;;;;;5111043;28;20376;-71
2023/01/13 05:47:26;;;;;;;21.48;3.83;;;9.00;60.80;;;;;;5107741;28;20421;-72
2023/01/13 05:49:52;;;;;;;13.03;3.40;;;9.10;60.30;;;;;;5105286;28;20386;-73
2023/01/13 05:52:17;;;;;;;18.63;3.30;;;9.00;59.90;;;;;;5091545;28;20488;-73
2023/01/13 05:54:43;;;;;;;14.93;3.30;;;8.90;61.60;;;;;;5091261;28;20389;-70
2023/01/13 05:57:08;;;;;;;20.77;3.50;;;8.80;61.80;;;;;;5090987;28;20378;-72
2023/01/13 05:59:34;;;;;;;17.43;3.23;;;8.80;61.30;;;;;;5090614;28;20797;-71
2023/01/13 06:01:59;;;;;;;21.63;3.73;;;8.70;62.00;;;;;;5091668;28;20912;-71
2023/01/13 06:04:25;;;;;;;21.37;3.37;;;8.80;61.40;;;;;;5098039;28;20481;-71
2023/01/13 06:06:50;;;;;;;12.82;3.70;;;8.90;61.10;;;;;;5098373;28;20390;-71
2023/01/13 06:09:16;;;;;;;17.05;3.10;;;9.00;59.50;;;;;;5092006;28;20470;-72
2023/01/13 06:11:42;;;;;;;9.45;2.70;;;9.10;58.40;;;;;;5090283;28;20415;-73
2023/01/13 06:14:07;;;;;;;13.82;2.95;;;9.20;55.50;;;;;;5090428;28;20386;-72
2023/01/13 06:16:33;;;;;;;17.67;3.45;;;9.20;55.60;;;;;;5090801;28;20869;-72
2023/01/13 06:18:58;;;;;;;11.00;2.35;;;9.20;56.60;;;;;;5090716;28;20382;-73
2023/01/13 06:21:24;;;;;;;12.73;3.00;;;9.10;55.60;;;;;;5090400;28;20835;-73
2023/01/13 06:23:49;;;;;;;18.90;3.10;;;9.10;56.70;;;;;;5090819;28;20389;-73
2023/01/13 06:26:19;;;;;;;20.40;2.90;;;9.10;55.80;;;;;;5090636;28;20807;-72
2023/01/13 06:28:45;;;;;;;13.57;2.90;;;9.00;55.60;;;;;;5072776;28;20398;-71
2023/01/13 06:31:11;;;;;;;14.45;3.20;;;8.90;57.20;;;;;;5090556;28;20397;-71
2023/01/13 06:33:41;;;;;;;15.02;3.63;;;8.80;57.20;;;;;;5090820;28;20886;-71
2023/01/13 06:36:15;;;;;;;14.95;3.20;;;8.70;58.40;;;;;;5072207;28;20394;-72
2023/01/13 06:38:46;;;;;;;21.47;3.57;;;8.70;58.90;;;;;;5072909;28;20404;-73
2023/01/13 06:41:12;;;;;;;12.65;3.22;;;8.60;59.60;;;;;;5091012;28;20473;-73
2023/01/13 06:43:39;;;;;;;11.55;2.80;;;8.50;59.90;;;;;;5094346;28;20453;-74
2023/01/13 06:46:05;;;;;;;15.75;3.28;;;8.50;60.30;;;;;;5095430;28;20374;-74
2023/01/13 06:48:33;;;;;;;21.80;3.13;;;8.50;61.30;;;;;;5095371;28;20424;-72
2023/01/13 06:51:00;;;;;;;16.25;2.83;;;8.50;61.10;;;;;;5095161;28;20378;-72
2023/01/13 06:53:25;;;;;;;13.70;3.00;;;8.40;62.30;;;;;;5094574;28;20718;-73
2023/01/13 06:55:51;;;;;;;11.30;3.20;;;8.40;62.30;;;;;;5094679;28;20416;-72
2023/01/13 06:58:16;;;;;;;14.17;3.30;;;8.40;63.20;;;;;;5096407;28;20496;-71
2023/01/13 07:00:42;;;;;;;12.88;3.33;;;8.40;63.40;;;;;;5094325;28;20425;-73
2023/01/13 07:03:13;;;;;;;11.00;3.22;;;8.30;64.60;;;;;;5094770;28;20381;-73
2023/01/13 07:05:39;;;;;;;18.23;4.03;;;8.30;64.90;;;;;;5094823;28;20393;-72
2023/01/13 07:08:06;;;;;;;12.25;2.95;;;8.30;65.30;;;;;;5094186;28;20390;-71
2023/01/13 07:10:32;;;;;;;13.77;2.67;;;8.20;65.60;;;;;;5094286;28;20382;-71
2023/01/13 07:16:00;;;;;;;17.60;3.20;;;8.30;64.10;;;;;;5039831;28;20893;-73
2023/01/13 07:18:27;;;;;;;11.52;3.40;;;8.30;64.00;;;;;;5095727;28;20366;-73
2023/01/13 07:20:58;;;;;;;17.40;3.30;;;8.30;64.70;;;;;;5096444;28;20746;-71
2023/01/13 07:23:25;;;;;;;13.88;2.80;;;8.20;64.20;;;;;;5097134;28;20502;-71
2023/01/13 07:25:56;;;;;;;11.27;2.85;;;8.30;63.50;;;;;;5097239;28;20441;-72
2023/01/13 07:28:23;;;;;;;15.50;2.67;;;8.30;61.80;;;;;;5097820;28;20386;-73
2023/01/13 07:30:49;;;;;;;14.75;3.75;;;8.20;62.60;;;;;;5099692;28;20381;-73
2023/01/13 07:33:14;;;;;;;14.30;2.80;;;8.10;63.40;;;;;;5100202;28;20808;-74
2023/01/13 07:35:40;;;;;;;18.40;3.17;;;8.20;61.70;;;;;;5096160;28;20378;-72
2023/01/13 07:38:07;;;;;;;17.15;3.30;;;8.20;60.10;;;;;;5075847;28;20385;-72
2023/01/13 07:40:32;;;;;;;13.15;2.75;;;8.20;61.20;;;;;;5093895;28;20385;-72
2023/01/13 07:45:42;;;;;;;12.18;2.90;;;8.40;58.20;;;;;;5093315;28;20378;-73
2023/01/13 07:48:07;;;;;;;12.10;2.90;;;8.30;58.80;;;;;;5093777;28;20393;-71
2023/01/13 07:50:33;;;;;;;9.77;2.40;;;8.40;58.20;;;;;;5093552;28;20381;-71
2023/01/13 07:52:59;;;;;;;13.10;3.00;;;8.50;57.10;;;;;;5092472;28;20495;-73
2023/01/13 07:55:24;;;;;;;14.67;2.40;;;8.70;56.20;;;;;;5091998;28;20381;-73
2023/01/13 07:57:50;;;;;;;10.87;2.67;;;8.70;55.60;;;;;;5074241;28;20394;-71
2023/01/13 08:00:16;;;;;;;19.13;3.40;;;8.80;54.70;;;;;;5092627;28;20409;-72
2023/01/13 08:02:42;;;;;;;15.05;2.67;;;8.90;54.10;;;;;;5092442;28;20858;-72
2023/01/13 08:05:08;;;;;;;8.25;1.95;;;8.80;54.10;;;;;;5093064;28;20428;-75
2023/01/13 08:07:33;;;;;;;9.13;2.50;;;8.90;54.50;;;;;;5092943;28;20413;-75
2023/01/13 08:09:59;;;;;;;8.73;2.40;;;8.90;54.30;;;;;;5075439;28;20878;-74
2023/01/13 08:15:09;;;;;;;12.70;2.93;;;9.00;53.30;;;;;;5094448;28;20442;-74
2023/01/13 08:17:35;;;;;;;10.43;2.55;;;9.00;53.30;;;;;;5097399;28;20398;-73
2023/01/13 08:20:02;;;;;;;14.65;3.20;;;9.00;53.60;;;;;;5076764;28;20430;-74
2023/01/13 08:22:29;;;;;;;16.35;3.40;;;9.10;52.70;;;;;;5080176;28;20410;-75
2023/01/13 08:24:55;;;;;;;12.02;2.58;;;9.20;51.30;;;;;;5089633;28;20402;-75
2023/01/13 08:27:21;;;;;;;11.75;2.72;;;9.20;51.50;;;;;;5090696;28;20432;-73
2023/01/13 08:29:46;;;;;;;13.02;2.60;;;9.30;51.20;;;;;;5088886;28;20386;-75
2023/01/13 08:32:12;;;;;;;12.63;2.95;;;9.30;51.20;;;;;;5078315;28;20453;-74
2023/01/13 08:34:38;;;;;;;10.75;2.55;;;9.30;51.60;;;;;;5092938;28;20446;-73
2023/01/13 08:37:03;;;;;;;13.48;2.60;;;9.30;52.10;;;;;;5096377;28;20859;-73
2023/01/13 08:39:29;;;;;;;10.85;2.15;;;9.40;52.10;;;;;;5096943;28;20405;-72
2023/01/13 08:41:55;;;;;;;10.68;2.72;;;9.40;51.90;;;;;;5089803;28;20385;-73
2023/01/13 08:44:21;;;;;;;13.57;2.95;;;9.40;52.40;;;;;;5099694;28;20398;-74
2023/01/13 08:46:47;;;;;;;14.30;2.70;;;9.40;52.00;;;;;;5090980;28;20390;-74
2023/01/13 08:49:12;;;;;;;21.88;3.53;;;9.40;52.00;;;;;;5090939;28;20447;-75
2023/01/13 08:51:38;;;;;;;11.32;3.15;;;9.50;52.60;;;;;;5078085;28;20449;-72
2023/01/13 08:54:04;;;;;;;12.67;3.07;;;9.70;50.40;;;;;;5064015;28;20412;-74
2023/01/13 08:56:30;;;;;;;17.02;3.38;;;9.70;50.10;;;;;;5089209;28;20390;-74
2023/01/13 08:58:59;;;;;;;19.13;4.07;;;9.70;49.70;;;;;;5071916;28;20394;-74
2023/01/13 09:01:25;;;;;;;23.35;3.35;;;9.70;49.70;;;;;;5089880;28;20378;-74
2023/01/13 09:03:52;;;;;;;16.37;3.17;;;9.80;49.20;;;;;;5090274;28;20811;-75
2023/01/13 09:06:17;;;;;;;21.70;4.18;;;9.80;49.00;;;;;;5089329;28;20398;-74
2023/01/13 09:08:43;;;;;;;21.33;5.17;;;9.90;48.80;;;;;;5090248;28;20382;-75
2023/01/13 09:14:02;;;;;;;18.85;4.20;;;9.80;48.70;;;;;;5077758;28;20455;-74
2023/01/13 09:16:28;;;;;;;17.42;3.70;;;9.80;48.00;;;;;;5090553;28;20394;-74
2023/01/13 09:18:54;;;;;;;22.88;4.10;;;9.90;47.50;;;;;;5090817;28;20476;-72
2023/01/13 09:21:21;;;;;;;17.13;4.03;;;9.80;47.40;;;;;;5089093;28;21109;-72
2023/01/13 09:23:47;;;;;;;20.73;3.40;;;9.90;47.20;;;;;;5089963;28;20518;-71
2023/01/13 09:26:18;;;;;;;21.65;4.03;;;9.90;47.30;;;;;;5090202;28;20389;-71
2023/01/13 09:28:44;;;;;;;24.00;4.05;;;9.90;47.00;;;;;;5089319;28;20385;-71
2023/01/13 09:31:09;;;;;;;20.23;4.20;;;9.90;46.10;;;;;;5088680;28;20402;-69
2023/01/13 09:36:19;;;;;;;32.55;4.50;;;10.00;45.60;;;;;;5088109;28;21045;-72
2023/01/13 09:38:45;;;;;;;21.52;3.65;;;10.10;44.60;;;;;;5090090;28;20483;-71
2023/01/13 09:44:14;;;;;;;22.60;4.40;;;10.30;43.70;;;;;;5094241;28;20808;-71
2023/01/13 09:46:48;;;;;;;25.90;4.43;;;10.30;44.20;;;;;;5074483;28;20389;-72
2023/01/13 09:49:20;;;;;;;20.75;4.47;;;10.30;42.50;;;;;;5089759;28;20413;-72
2023/01/13 09:52:08;;;;;;;23.80;4.80;;;10.30;43.90;;;;;;5089688;28;20493;-71
2023/01/13 09:54:40;;;;;;;25.55;4.60;;;10.30;43.50;;;;;;5071905;28;20396;-72
2023/01/13 09:57:14;;;;;;;19.27;4.13;;;10.40;42.10;;;;;;5069153;28;20384;-72
2023/01/13 09:59:40;;;;;;;24.58;4.55;;;10.30;42.20;;;;;;5069357;28;20793;-72
2023/01/13 10:02:30;;;;;;;28.85;4.88;;;10.20;43.40;;;;;;5069610;28;20392;-72
2023/01/13 10:05:12;;;;;;;24.53;4.50;;;10.10;44.50;;;;;;5062403;28;20985;-71
2023/01/13 10:07:44;;;;;;;25.80;4.90;;;10.20;44.50;;;;;;5090018;28;20374;-72
2023/01/13 10:10:20;;;;;;;26.25;4.57;;;10.30;42.40;;;;;;5089577;28;20882;-72
2023/01/13 10:15:32;;;;;;;26.55;4.28;;;10.50;41.40;;;;;;5071763;28;20386;-71
2023/01/13 10:18:24;;;;;;;23.05;4.63;;;10.50;41.40;;;;;;5084046;28;20390;-72
2023/01/13 10:21:00;;;;;;;25.20;4.63;;;10.50;40.60;;;;;;5097366;28;20876;-72
2023/01/13 10:23:25;;;;;;;23.80;4.50;;;10.50;41.10;;;;;;5096400;28;20411;-72
2023/01/13 10:26:02;;;;;;;27.90;5.40;;;10.40;41.50;;;;;;5099303;28;20402;-72
2023/01/13 10:28:27;;;;;;;23.65;4.68;;;10.40;41.80;;;;;;5075768;28;20782;-72
2023/01/13 10:30:53;;;;;;;25.73;4.20;;;10.50;41.60;;;;;;5089954;28;20435;-73
2023/01/13 10:33:27;;;;;;;22.75;4.10;;;10.50;41.20;;;;;;5057181;28;20407;-71
2023/01/13 10:36:12;;;;;;;26.17;4.18;;;10.50;41.30;;;;;;5085154;28;20377;-71
2023/01/13 10:38:44;;;;;;;30.75;5.28;;;10.50;41.60;;;;;;5107231;28;20382;-71
2023/01/13 10:41:15;;;;;;;18.70;4.30;;;10.60;41.00;;;;;;5110453;28;20373;-70
2023/01/13 10:43:42;;;;;;;18.77;4.00;;;10.70;40.50;;;;;;5102710;28;20901;-71
2023/01/13 10:46:16;;;;;;;23.45;3.90;;;10.90;39.30;;;;;;5092647;28;20641;-70
2023/01/13 10:49:02;;;;;;;23.98;4.78;;;11.10;38.10;;;;;;5064730;28;20513;-71
2023/01/13 10:51:37;;;;;;;19.65;4.50;;;11.20;36.40;;;;;;5085212;28;20387;-71
2023/01/13 10:54:19;;;;;;;22.58;4.45;;;11.20;36.70;;;;;;5097549;28;20405;-70
2023/01/13 10:56:45;;;;;;;22.45;4.65;;;11.40;35.50;;;;;;5098026;28;20461;-70
2023/01/13 10:59:25;;;;;;;25.80;4.25;;;11.50;35.90;;;;;;5093501;28;20953;-72
2023/01/13 11:01:58;;;;;;;18.17;4.22;;;11.60;34.50;;;;;;5074907;28;20401;-73
2023/01/13 11:04:34;;;;;;;21.02;4.38;;;11.90;34.80;;;;;;5094389;28;20382;-74
2023/01/13 11:07:01;;;;;;;25.63;4.97;;;12.00;33.80;;;;;;5093091;28;20378;-73
2023/01/13 11:09:29;;;;;;;20.38;4.40;;;12.00;34.30;;;;;;5041067;28;20768;-73
2023/01/13 11:11:55;;;;;;;21.00;5.05;;;12.00;33.00;;;;;;5086884;28;20461;-71
2023/01/13 11:14:38;;;;;;;22.90;4.00;;;11.70;33.20;;;;;;5096099;28;20392;-72
2023/01/13 11:17:08;;;;;;;22.77;5.10;;;11.50;34.60;;;;;;5095039;28;20477;-73
2023/01/13 11:19:40;;;;;;;22.45;5.30;;;11.40;35.90;;;;;;5078769;28;20484;-72
2023/01/13 11:22:16;;;;;;;23.33;4.68;;;11.30;36.20;;;;;;5108455;28;20402;-70
2023/01/13 11:24:50;;;;;;;22.35;4.30;;;11.10;36.00;;;;;;5109028;28;20386;-72
2023/01/13 11:27:41;;;;;;;25.77;5.10;;;11.10;36.80;;;;;;5095469;28;20421;-72
2023/01/13 11:30:19;;;;;;;20.70;4.32;;;10.90;37.40;;;;;;5098241;28;20453;-72
2023/01/13 11:33:13;;;;;;;22.27;4.95;;;10.80;38.10;;;;;;5097179;28;20398;-71
2023/01/13 11:35:46;;;;;;;20.42;4.35;;;10.80;38.40;;;;;;5057832;28;20406;-72
2023/01/13 11:38:17;;;;;;;26.30;4.55;;;10.80;37.90;;;;;;5103784;28;20427;-71
2023/01/13 11:40:49;;;;;;;25.40;4.37;;;10.80;36.70;;;;;;5094194;28;20374;-72
2023/01/13 11:43:26;;;;;;;25.98;5.47;;;10.70;37.00;;;;;;5094017;28;20378;-72
2023/01/13 11:45:57;;;;;;;21.53;4.20;;;10.70;38.00;;;;;;5075163;28;20390;-71
2023/01/13 11:48:27;;;;;;;27.80;4.80;;;10.80;37.30;;;;;;5093730;28;20397;-72
2023/01/13 11:50:56;;;;;;;22.42;4.43;;;10.90;37.10;;;;;;5093568;28;20405;-72
2023/01/13 11:53:54;;;;;;;19.27;4.63;;;11.00;37.20;;;;;;5093354;28;20443;-72
2023/01/13 11:56:57;;;;;;;23.70;4.50;;;11.00;37.00;;;;;;5093264;28;20374;-72
2023/01/13 12:00:00;;;;;;;27.60;5.57;;;11.00;36.90;;;;;;5093199;28;20456;-72
2023/01/13 12:03:00;;;;;;;30.88;5.15;;;10.90;38.20;;;;;;5093008;28;20378;-72
2023/01/13 12:05:41;;;;;;;24.80;5.00;;;10.90;37.80;;;;;;5093256;28;20421;-71
2023/01/13 12:08:31;;;;;;;23.77;4.50;;;10.90;38.00;;;;;;5093346;28;20802;-71
2023/01/13 12:11:05;;;;;;;19.45;4.70;;;10.90;37.60;;;;;;5093284;28;20382;-71
2023/01/13 12:14:05;;;;;;;14.43;4.07;;;10.70;40.60;;;;;;5093258;28;21060;-72
2023/01/13 12:16:31;;;;;;;32.50;4.90;;;10.70;39.30;;;;;;5074802;28;20807;-70
2023/01/13 12:19:15;;;;;;;19.45;4.20;;;10.90;39.40;;;;;;5093160;28;20406;-71
2023/01/13 12:22:08;;;;;;;20.77;4.10;;;10.80;37.90;;;;;;5092765;28;20386;-72
2023/01/13 12:24:49;;;;;;;19.73;4.27;;;10.80;39.90;;;;;;5094377;28;20552;-71
2023/01/13 12:27:18;;;;;;;20.05;4.85;;;10.80;38.20;;;;;;5093218;28;20810;-71
2023/01/13 12:29:47;;;;;;;21.17;5.13;;;10.80;38.50;;;;;;5093589;28;20378;-72
2023/01/13 12:32:20;;;;;;;18.17;3.40;;;10.80;38.90;;;;;;5092873;28;20416;-71
2023/01/13 12:35:00;;;;;;;13.70;3.60;;;10.80;38.90;;;;;;5093324;28;20382;-71
2023/01/13 12:37:43;;;;;;;21.38;4.00;;;10.70;39.50;;;;;;5093504;28;20389;-71
2023/01/13 12:40:27;;;;;;;18.48;3.83;;;10.50;41.80;;;;;;5091603;28;20451;-71
2023/01/13 12:46:22;;;;;;;20.27;4.43;;;10.30;44.80;;;;;;5092481;28;20421;-72
2023/01/13 12:48:53;;;;;;;21.60;4.57;;;10.40;45.00;;;;;;5092998;28;20890;-73
2023/01/13 12:51:32;;;;;;;21.37;5.23;;;10.50;43.90;;;;;;5092422;28;20396;-72
2023/01/13 12:53:59;;;;;;;17.00;3.70;;;10.50;45.30;;;;;;5092678;28;20429;-72
2023/01/13 12:56:44;;;;;;;15.63;3.70;;;10.50;44.80;;;;;;5094313;28;20465;-71
2023/01/13 12:59:18;;;;;;;21.40;4.22;;;10.40;46.40;;;;;;5094398;28;20382;-72
2023/01/13 13:01:46;;;;;;;22.67;3.55;;;10.30;47.20;;;;;;5091565;28;20378;-72
2023/01/13 13:04:16;;;;;;;21.45;4.10;;;10.20;46.80;;;;;;5092361;28;20492;-72
2023/01/13 13:06:50;;;;;;;19.13;4.65;;;10.20;49.10;;;;;;5092116;28;20382;-72
2023/01/13 13:09:29;;;;;;;15.48;3.60;;;10.20;48.50;;;;;;5092232;28;20859;-71
2023/01/13 13:14:38;;;;;;;15.10;4.35;;;10.00;50.30;;;;;;5093208;28;20386;-71
2023/01/13 13:17:30;;;;;;;14.35;3.80;;;10.00;51.50;;;;;;5094986;28;20734;-71
2023/01/13 13:19:58;;;;;;;15.93;3.47;;;10.00;51.70;;;;;;5054171;28;20433;-71
2023/01/13 13:22:26;;;;;;;15.75;3.80;;;10.00;49.90;;;;;;5100392;28;20443;-71
2023/01/13 13:24:56;;;;;;;18.45;3.95;;;9.90;50.60;;;;;;5095882;28;20409;-71
2023/01/13 13:27:25;;;;;;;26.35;4.38;;;9.90;51.80;;;;;;5095103;28;20407;-73
2023/01/13 13:29:56;;;;;;;20.27;4.10;;;9.90;52.40;;;;;;5093095;28;20382;-71
2023/01/13 13:33:05;;;;;;;16.45;3.80;;;9.90;54.10;;;;;;5091609;28;20405;-71
2023/01/13 13:35:40;;;;;;;21.85;4.63;;;9.90;53.60;;;;;;5012259;28;20439;-74
2023/01/13 13:47:00;;;;;;;23.17;5.15;;;9.80;56.10;;;;;;5093713;28;20446;-71
2023/01/13 13:49:41;;;;;;;26.27;5.10;;;9.70;56.40;;;;;;5092737;28;20390;-71
2023/01/13 13:52:38;;;;;;;23.52;5.15;;;9.80;55.70;;;;;;5091005;28;20623;-71
2023/01/13 13:55:12;;;;;;;23.23;4.50;;;9.80;56.40;;;;;;5091689;28;20746;-72
2023/01/13 13:57:41;;;;;;;27.10;4.90;;;9.80;56.00;;;;;;5076885;28;20866;-71
2023/01/13 14:00:23;;;;;;;20.60;4.88;;;9.80;57.00;;;;;;5110038;28;20381;-72
2023/01/13 14:02:52;;;;;;;18.10;4.90;;;9.80;57.00;;;;;;5102396;28;20374;-72
2023/01/13 14:05:24;;;;;;;29.40;5.10;;;9.80;56.40;;;;;;5091618;28;20401;-72
2023/01/13 14:08:05;;;;;;;27.27;5.32;;;9.80;55.50;;;;;;5090775;28;20390;-72
2023/01/13 14:10:34;;;;;;;21.55;4.53;;;9.80;56.80;;;;;;5090857;28;20895;-72
2023/01/13 14:13:02;;;;;;;20.58;4.45;;;9.90;56.40;;;;;;5090951;28;20493;-72